Time;durP1;ratioP1;P1;durP2;ratioP2;P2;SDS_P1;SDS_P2;PMS_P1;PMS_P2;Temp;Humidity;BMP_temperature;BMP_pressure;BME280_temperature;BME280_humidity;BME280_pressure;Samples;Min_cycle;Max_cycle;Signal;HPM_P1;HPM_P2
2022/12/01 00:00:21;;;;;;;3.70;2.43;;;5.10;98.00;;;;;;4994784;28;20456;-66
2022/12/01 00:02:48;;;;;;;4.10;2.90;;;5.10;98.00;;;;;;5012015;28;20461;-66
2022/12/01 00:05:17;;;;;;;6.60;3.20;;;5.10;98.00;;;;;;5012112;28;20481;-66
2022/12/01 00:07:44;;;;;;;6.53;3.10;;;5.10;98.00;;;;;;5012089;28;20468;-66
2022/12/01 00:10:29;;;;;;;6.80;3.40;;;5.10;98.00;;;;;;5012326;28;20824;-66
2022/12/01 00:12:59;;;;;;;5.50;2.67;;;5.00;98.00;;;;;;5012166;28;20465;-66
2022/12/01 00:15:29;;;;;;;4.30;2.30;;;4.90;98.00;;;;;;5012345;28;20799;-66
2022/12/01 00:17:57;;;;;;;4.03;2.53;;;4.80;98.00;;;;;;5011981;28;20539;-66
2022/12/01 00:20:26;;;;;;;6.30;2.73;;;4.90;98.00;;;;;;5012072;28;20465;-66
2022/12/01 00:22:53;;;;;;;3.00;2.33;;;4.90;98.00;;;;;;5011848;28;20486;-66
2022/12/01 00:25:20;;;;;;;7.23;3.53;;;4.80;98.00;;;;;;5012133;28;20462;-66
2022/12/01 00:27:48;;;;;;;5.57;3.10;;;4.80;98.00;;;;;;5012025;28;20868;-66
2022/12/01 00:30:17;;;;;;;6.10;3.50;;;4.90;98.00;;;;;;5012069;28;20554;-66
2022/12/01 00:32:44;;;;;;;3.53;2.40;;;4.90;98.00;;;;;;5012072;28;20458;-66
2022/12/01 00:35:13;;;;;;;6.00;3.30;;;5.00;98.00;;;;;;5011949;28;20470;-66
2022/12/01 00:37:41;;;;;;;3.20;2.57;;;4.80;98.00;;;;;;5011904;28;20552;-66
2022/12/01 00:40:11;;;;;;;6.00;3.53;;;4.90;98.00;;;;;;5012601;28;20472;-66
2022/12/01 00:42:39;;;;;;;5.90;2.30;;;4.90;98.00;;;;;;5016108;28;20861;-66
2022/12/01 00:45:07;;;;;;;4.10;3.00;;;4.90;98.00;;;;;;5015941;28;20521;-66
2022/12/01 00:47:34;;;;;;;8.20;2.90;;;4.80;98.00;;;;;;5015953;28;20473;-66
2022/12/01 00:50:03;;;;;;;6.17;2.97;;;4.80;98.00;;;;;;5016142;28;20486;-65
2022/12/01 00:52:30;;;;;;;5.20;3.20;;;4.70;98.00;;;;;;5016034;28;20461;-66
2022/12/01 00:54:58;;;;;;;4.00;3.07;;;4.70;98.00;;;;;;5016205;28;20936;-66
2022/12/01 00:57:26;;;;;;;8.40;3.93;;;4.70;98.00;;;;;;5015438;28;20465;-66
2022/12/01 00:59:53;;;;;;;3.97;2.73;;;4.70;98.00;;;;;;5015656;28;20846;-66
2022/12/01 01:02:20;;;;;;;7.90;2.90;;;4.60;98.00;;;;;;5015687;28;20467;-66
2022/12/01 01:04:47;;;;;;;5.33;2.73;;;4.60;98.00;;;;;;4998095;28;20469;-66
2022/12/01 01:07:15;;;;;;;3.73;2.23;;;4.60;98.00;;;;;;5015320;28;20833;-66
2022/12/01 01:09:42;;;;;;;8.93;3.43;;;4.60;98.00;;;;;;5015478;28;20460;-66
2022/12/01 01:12:10;;;;;;;6.93;2.93;;;4.60;98.00;;;;;;5015210;28;20518;-66
2022/12/01 01:14:37;;;;;;;3.30;2.20;;;4.60;98.00;;;;;;5015330;28;20508;-66
2022/12/01 01:17:04;;;;;;;4.37;2.80;;;4.70;98.00;;;;;;5014977;28;20551;-66
2022/12/01 01:19:32;;;;;;;7.93;3.33;;;5.00;98.00;;;;;;5015163;28;20486;-66
2022/12/01 01:21:59;;;;;;;5.70;3.43;;;5.00;98.00;;;;;;4997638;28;20491;-66
2022/12/01 01:24:26;;;;;;;6.23;3.57;;;4.90;98.00;;;;;;5015203;28;20513;-66
2022/12/01 01:26:54;;;;;;;3.60;2.23;;;4.90;98.00;;;;;;5014991;28;20946;-66
2022/12/01 01:29:23;;;;;;;8.17;3.53;;;4.80;98.00;;;;;;5015086;28;20499;-66
2022/12/01 01:31:50;;;;;;;4.50;3.10;;;4.90;98.00;;;;;;5015073;28;20459;-66
2022/12/01 01:34:17;;;;;;;3.03;2.40;;;4.90;98.00;;;;;;5014970;28;20818;-66
2022/12/01 01:36:44;;;;;;;3.73;2.17;;;4.90;98.00;;;;;;5015064;28;20455;-65
2022/12/01 01:39:11;;;;;;;3.20;2.13;;;4.90;98.00;;;;;;5014865;28;20489;-66
2022/12/01 01:41:38;;;;;;;6.77;3.10;;;4.90;98.00;;;;;;5015028;28;20818;-65
2022/12/01 01:44:46;;;;;;;4.90;2.37;;;4.80;98.00;;;;;;4997538;28;21120;-66
2022/12/01 01:47:14;;;;;;;3.57;2.90;;;4.70;98.00;;;;;;5015111;28;20525;-66
2022/12/01 01:49:42;;;;;;;4.00;2.43;;;4.60;98.00;;;;;;5014633;28;20470;-66
2022/12/01 01:52:10;;;;;;;7.63;3.20;;;4.60;98.00;;;;;;5013896;28;20461;-65
2022/12/01 01:54:42;;;;;;;2.50;2.10;;;4.60;98.00;;;;;;5014251;28;20551;-66
2022/12/01 01:57:11;;;;;;;8.93;2.80;;;4.60;98.00;;;;;;5014640;28;20513;-65
2022/12/01 01:59:45;;;;;;;4.07;2.83;;;4.70;98.00;;;;;;5014520;28;20496;-66
2022/12/01 02:02:14;;;;;;;4.13;2.63;;;4.70;98.00;;;;;;5014484;28;20461;-66
2022/12/01 02:04:45;;;;;;;5.30;2.70;;;4.70;98.00;;;;;;5014058;28;20466;-65
2022/12/01 02:07:16;;;;;;;5.57;2.77;;;4.80;98.00;;;;;;4997022;28;20488;-65
2022/12/01 02:09:45;;;;;;;2.50;2.03;;;4.80;98.00;;;;;;5014582;28;20496;-66
2022/12/01 02:12:26;;;;;;;5.40;2.90;;;4.80;98.00;;;;;;5014165;28;20523;-65
2022/12/01 02:15:13;;;;;;;8.20;3.27;;;4.70;98.00;;;;;;5014199;28;20532;-66
2022/12/01 02:17:51;;;;;;;4.33;2.97;;;4.60;98.00;;;;;;5014048;28;20466;-66
2022/12/01 02:20:39;;;;;;;9.20;2.30;;;4.60;98.00;;;;;;5014183;28;20456;-66
2022/12/01 02:23:26;;;;;;;4.07;2.90;;;4.70;98.00;;;;;;5014110;28;20458;-65
2022/12/01 02:26:08;;;;;;;4.53;2.63;;;4.60;98.00;;;;;;5014232;28;20468;-66
2022/12/01 02:28:57;;;;;;;3.40;2.03;;;4.50;98.00;;;;;;5014140;28;20463;-66
2022/12/01 02:31:35;;;;;;;3.10;2.47;;;4.40;98.00;;;;;;5014056;28;20691;-65
2022/12/01 02:34:09;;;;;;;7.47;3.57;;;4.40;98.00;;;;;;5013890;28;20464;-66
2022/12/01 02:36:40;;;;;;;3.57;2.67;;;4.50;98.00;;;;;;5014162;28;20465;-65
2022/12/01 02:39:16;;;;;;;6.50;3.20;;;4.50;98.00;;;;;;5013534;28;20484;-66
2022/12/01 02:41:50;;;;;;;5.47;2.40;;;4.50;98.00;;;;;;5014143;28;20805;-66
2022/12/01 02:44:22;;;;;;;9.07;2.97;;;4.50;98.00;;;;;;5013741;28;20521;-66
2022/12/01 02:46:55;;;;;;;6.27;2.90;;;4.60;98.00;;;;;;4996269;28;20473;-66
2022/12/01 02:49:26;;;;;;;3.87;2.90;;;4.60;98.00;;;;;;5013752;28;20825;-65
2022/12/01 02:51:55;;;;;;;6.60;2.77;;;4.50;98.00;;;;;;5013365;28;20465;-66
2022/12/01 02:54:24;;;;;;;4.90;2.67;;;4.40;98.00;;;;;;5013482;28;20460;-66
2022/12/01 02:56:52;;;;;;;4.30;2.90;;;4.40;98.00;;;;;;5013525;28;20515;-66
2022/12/01 02:59:20;;;;;;;6.47;3.20;;;4.50;98.00;;;;;;5013203;28;20484;-65
2022/12/01 03:02:01;;;;;;;4.27;3.10;;;4.40;98.00;;;;;;5013512;28;20463;-66
2022/12/01 03:04:50;;;;;;;4.20;2.53;;;4.40;98.00;;;;;;5012264;28;21006;-65
2022/12/01 03:07:39;;;;;;;3.00;2.27;;;4.30;98.00;;;;;;4996713;28;20465;-66
2022/12/01 03:10:19;;;;;;;2.47;2.00;;;4.40;98.00;;;;;;5013118;28;21139;-65
2022/12/01 03:12:57;;;;;;;6.80;4.47;;;4.40;98.00;;;;;;4996888;28;20520;-65
2022/12/01 03:15:32;;;;;;;5.20;2.73;;;4.40;98.00;;;;;;5013093;28;20461;-66
2022/12/01 03:18:10;;;;;;;6.30;2.60;;;4.30;98.00;;;;;;5013147;28;20460;-66
2022/12/01 03:20:42;;;;;;;7.03;3.30;;;4.40;98.00;;;;;;5012938;28;20464;-65
2022/12/01 03:23:12;;;;;;;5.13;3.13;;;4.40;98.00;;;;;;4996125;28;21012;-66
2022/12/01 03:25:43;;;;;;;5.40;3.07;;;4.50;98.00;;;;;;5013022;28;20514;-65
2022/12/01 03:28:15;;;;;;;6.50;2.70;;;4.40;98.00;;;;;;5013022;28;20918;-66
2022/12/01 03:30:43;;;;;;;6.20;4.20;;;4.50;98.00;;;;;;5013135;28;20829;-66
2022/12/01 03:33:18;;;;;;;2.60;2.27;;;4.50;98.00;;;;;;5012826;28;20464;-65
2022/12/01 03:35:51;;;;;;;3.90;2.57;;;4.40;98.00;;;;;;5013203;28;20562;-66
2022/12/01 03:38:23;;;;;;;2.90;2.30;;;4.30;98.00;;;;;;5012764;28;20989;-65
2022/12/01 03:40:54;;;;;;;3.27;2.70;;;4.20;98.00;;;;;;4995678;28;20820;-65
2022/12/01 03:43:25;;;;;;;8.60;2.97;;;4.20;98.00;;;;;;5012607;28;20789;-65
2022/12/01 03:45:58;;;;;;;5.90;4.10;;;4.20;98.00;;;;;;5012572;28;20474;-66
2022/12/01 03:48:27;;;;;;;4.90;2.30;;;4.30;98.00;;;;;;5012691;28;20455;-66
2022/12/01 03:51:04;;;;;;;9.00;3.70;;;4.20;98.00;;;;;;5012420;28;20464;-65
2022/12/01 03:53:39;;;;;;;6.80;2.83;;;4.20;98.00;;;;;;5012588;28;20489;-66
2022/12/01 03:56:07;;;;;;;4.80;2.10;;;4.20;98.00;;;;;;5012529;28;20859;-65
2022/12/01 03:58:40;;;;;;;7.37;2.90;;;4.30;98.00;;;;;;5012378;28;20547;-66
2022/12/01 04:01:08;;;;;;;6.60;2.43;;;4.30;98.00;;;;;;5012344;28;20495;-66
2022/12/01 04:03:37;;;;;;;8.70;4.10;;;4.40;98.00;;;;;;5012486;28;20463;-65
2022/12/01 04:06:05;;;;;;;5.43;2.47;;;4.50;98.00;;;;;;5012160;28;20516;-65
2022/12/01 04:08:36;;;;;;;12.70;3.57;;;4.60;98.00;;;;;;5012040;28;20460;-66
2022/12/01 04:12:28;;;;;;;8.73;3.07;;;4.70;98.00;;;;;;4995697;28;20462;-66
2022/12/01 04:13:50;;;;;;;6.60;3.30;;;4.60;98.00;;;;;;5012101;28;20453;-65
2022/12/01 04:16:17;;;;;;;7.03;3.40;;;4.50;98.00;;;;;;5012083;28;20467;-66
2022/12/01 04:18:46;;;;;;;6.10;3.70;;;4.60;98.00;;;;;;5012309;28;21053;-65
2022/12/01 04:21:13;;;;;;;11.13;3.63;;;4.60;98.00;;;;;;5012227;28;20460;-65
2022/12/01 04:26:24;;;;;;;6.03;2.63;;;4.40;98.00;;;;;;4997654;28;20451;-66
2022/12/01 04:28:51;;;;;;;7.00;3.00;;;4.60;98.00;;;;;;5012043;28;20473;-66
2022/12/01 04:31:19;;;;;;;3.03;2.13;;;4.50;98.00;;;;;;5012261;28;20467;-65
2022/12/01 04:33:47;;;;;;;10.50;3.90;;;4.40;98.00;;;;;;4994570;28;20459;-65
2022/12/01 04:36:14;;;;;;;3.80;3.00;;;4.40;98.00;;;;;;5011957;28;20462;-65
2022/12/01 04:38:42;;;;;;;4.27;2.40;;;4.40;98.00;;;;;;5011787;28;20485;-65
2022/12/01 04:41:10;;;;;;;3.17;2.67;;;4.30;98.00;;;;;;5011816;28;21143;-66
2022/12/01 04:43:39;;;;;;;5.17;2.50;;;4.30;98.00;;;;;;5011740;28;21014;-66
2022/12/01 04:46:07;;;;;;;7.83;2.97;;;4.50;98.00;;;;;;4994415;28;20459;-66
2022/12/01 04:48:35;;;;;;;8.77;2.43;;;4.50;98.00;;;;;;5011778;28;20469;-65
2022/12/01 04:51:04;;;;;;;5.10;2.63;;;4.40;98.00;;;;;;5011677;28;20556;-66
2022/12/01 04:53:32;;;;;;;3.37;2.50;;;4.30;98.00;;;;;;5011559;28;20463;-65
2022/12/01 04:56:00;;;;;;;4.80;2.73;;;4.40;98.00;;;;;;5012052;28;20453;-65
2022/12/01 04:58:27;;;;;;;6.30;2.87;;;4.40;98.00;;;;;;5011554;28;20453;-66
2022/12/01 05:00:55;;;;;;;8.63;3.93;;;4.50;98.00;;;;;;5012026;28;20470;-65
2022/12/01 05:03:22;;;;;;;3.97;3.07;;;4.60;98.00;;;;;;4994206;28;20465;-65
2022/12/01 05:05:49;;;;;;;5.90;2.57;;;4.60;98.00;;;;;;5011754;28;20457;-65
2022/12/01 05:08:17;;;;;;;3.20;2.53;;;4.60;98.00;;;;;;5011846;28;20464;-66
2022/12/01 05:10:44;;;;;;;6.07;2.87;;;4.40;98.00;;;;;;5012120;28;20460;-66
2022/12/01 05:13:12;;;;;;;6.20;3.57;;;4.30;98.00;;;;;;5011676;28;20457;-66
2022/12/01 05:15:39;;;;;;;4.33;2.90;;;4.30;98.00;;;;;;5011858;28;20456;-66
2022/12/01 05:18:07;;;;;;;4.27;2.83;;;4.30;98.00;;;;;;5011775;28;20467;-65
2022/12/01 05:23:20;;;;;;;11.90;3.97;;;4.30;98.00;;;;;;5011538;28;20447;-65
2022/12/01 05:25:47;;;;;;;11.23;3.70;;;4.30;98.00;;;;;;5011370;28;20461;-66
2022/12/01 05:28:14;;;;;;;4.60;2.83;;;4.40;98.00;;;;;;5013107;28;20456;-66
2022/12/01 05:30:41;;;;;;;6.47;3.77;;;4.40;98.00;;;;;;4997570;28;20460;-66
2022/12/01 05:33:08;;;;;;;9.13;4.50;;;4.40;98.00;;;;;;5014892;28;20465;-65
2022/12/01 05:35:35;;;;;;;6.03;3.40;;;4.30;98.00;;;;;;5015152;28;20487;-65
2022/12/01 05:38:03;;;;;;;3.90;2.37;;;4.20;98.00;;;;;;4997460;28;20457;-65
2022/12/01 05:40:32;;;;;;;6.30;3.10;;;4.30;98.00;;;;;;5014728;28;20811;-66
2022/12/01 05:42:59;;;;;;;5.23;3.07;;;4.30;98.00;;;;;;5014803;28;20868;-65
2022/12/01 05:45:26;;;;;;;10.13;3.37;;;4.30;98.00;;;;;;5014490;28;20455;-65
2022/12/01 05:47:55;;;;;;;3.57;2.53;;;4.20;98.00;;;;;;4997364;28;20456;-65
2022/12/01 05:50:22;;;;;;;9.00;2.53;;;4.20;98.00;;;;;;5014698;28;20544;-65
2022/12/01 05:52:49;;;;;;;4.53;2.47;;;4.20;98.00;;;;;;5014656;28;20846;-66
2022/12/01 05:55:17;;;;;;;9.17;4.20;;;4.20;98.00;;;;;;5014522;28;20460;-66
2022/12/01 05:57:45;;;;;;;4.83;3.23;;;4.10;98.00;;;;;;4997262;28;20799;-65
2022/12/01 06:00:14;;;;;;;4.80;2.80;;;4.20;98.00;;;;;;5013871;28;20485;-66
2022/12/01 06:02:42;;;;;;;6.87;3.40;;;4.10;98.00;;;;;;5014519;28;20488;-66
2022/12/01 06:05:11;;;;;;;5.93;4.03;;;4.10;98.00;;;;;;5014621;28;20467;-65
2022/12/01 06:07:39;;;;;;;16.63;3.20;;;4.20;98.00;;;;;;5014617;28;20948;-65
2022/12/01 06:10:08;;;;;;;5.40;2.33;;;4.30;98.00;;;;;;5014667;28;20466;-65
2022/12/01 06:12:35;;;;;;;2.90;2.60;;;4.30;98.00;;;;;;4997125;28;20564;-66
2022/12/01 06:15:08;;;;;;;5.97;2.70;;;4.40;98.00;;;;;;5014633;28;20465;-66
2022/12/01 06:17:35;;;;;;;8.87;4.27;;;4.40;98.00;;;;;;5014465;28;20463;-66
2022/12/01 06:20:02;;;;;;;7.70;3.83;;;4.30;98.00;;;;;;5013953;28;20489;-66
2022/12/01 06:22:30;;;;;;;8.03;3.50;;;4.30;98.00;;;;;;5014095;28;21050;-65
2022/12/01 06:24:57;;;;;;;3.83;2.43;;;4.20;98.00;;;;;;5014059;28;20463;-65
2022/12/01 06:27:24;;;;;;;10.47;4.50;;;4.20;98.00;;;;;;4996538;28;20461;-65
2022/12/01 06:29:51;;;;;;;8.77;3.30;;;4.20;98.00;;;;;;5014032;28;20461;-65
2022/12/01 06:32:19;;;;;;;6.50;3.20;;;4.20;98.00;;;;;;5013747;28;20522;-65
2022/12/01 06:34:46;;;;;;;5.30;3.40;;;4.30;98.00;;;;;;5013900;28;20457;-65
2022/12/01 06:37:15;;;;;;;7.90;4.23;;;4.30;98.00;;;;;;5013778;28;21047;-65
2022/12/01 06:39:43;;;;;;;5.60;2.40;;;4.30;98.00;;;;;;5013552;28;20482;-66
2022/12/01 06:42:10;;;;;;;4.47;2.73;;;4.40;98.00;;;;;;5013574;28;20464;-66
2022/12/01 06:44:38;;;;;;;6.07;3.00;;;4.30;98.00;;;;;;5013891;28;20461;-66
2022/12/01 06:47:06;;;;;;;8.77;3.67;;;4.40;98.00;;;;;;5013710;28;20809;-65
2022/12/01 06:49:35;;;;;;;7.63;4.40;;;4.50;98.00;;;;;;5013596;28;20519;-65
2022/12/01 06:52:02;;;;;;;8.27;3.20;;;4.60;98.00;;;;;;5013439;28;20960;-65
2022/12/01 06:54:29;;;;;;;8.47;3.33;;;4.40;98.00;;;;;;5013380;28;20472;-66
2022/12/01 06:56:57;;;;;;;7.57;3.00;;;4.60;98.00;;;;;;5013726;28;20764;-65
2022/12/01 06:59:24;;;;;;;10.13;4.03;;;4.60;98.00;;;;;;4996191;28;20488;-66
2022/12/01 07:01:52;;;;;;;9.50;4.10;;;4.50;98.00;;;;;;5013641;28;20501;-66
2022/12/01 07:04:19;;;;;;;5.50;3.03;;;4.50;98.00;;;;;;4996198;28;20952;-65
2022/12/01 07:06:47;;;;;;;13.33;5.10;;;4.60;98.00;;;;;;4996346;28;20453;-65
2022/12/01 07:09:14;;;;;;;6.00;3.37;;;4.80;98.00;;;;;;5013239;28;20456;-66
2022/12/01 07:11:42;;;;;;;6.50;3.20;;;4.90;98.00;;;;;;5013532;28;20509;-66
2022/12/01 07:14:19;;;;;;;9.40;4.30;;;4.70;98.00;;;;;;5012922;28;20457;-66
2022/12/01 07:16:46;;;;;;;9.90;3.77;;;4.70;98.00;;;;;;5012870;28;20458;-66
2022/12/01 07:19:13;;;;;;;4.13;2.63;;;4.80;98.00;;;;;;5012526;28;20473;-65
2022/12/01 07:21:40;;;;;;;4.30;3.07;;;5.00;98.00;;;;;;5013355;28;20474;-65
2022/12/01 07:24:11;;;;;;;12.17;3.63;;;5.00;98.00;;;;;;5012813;28;20470;-66
2022/12/01 07:26:39;;;;;;;13.33;4.07;;;5.10;98.00;;;;;;5012985;28;20792;-66
2022/12/01 07:29:06;;;;;;;7.37;3.63;;;5.00;98.00;;;;;;5012798;28;20458;-65
2022/12/01 07:31:33;;;;;;;8.23;3.47;;;5.00;98.00;;;;;;5012794;28;20460;-66
2022/12/01 07:34:00;;;;;;;10.87;3.70;;;5.00;98.00;;;;;;5012801;28;20469;-65
2022/12/01 07:36:28;;;;;;;9.93;4.00;;;5.00;98.00;;;;;;5012728;28;20459;-62
2022/12/01 07:38:55;;;;;;;5.93;3.63;;;4.90;98.00;;;;;;5012861;28;20525;-62
2022/12/01 07:41:23;;;;;;;7.53;3.77;;;4.90;98.00;;;;;;5012514;28;20484;-62
2022/12/01 07:43:51;;;;;;;6.00;2.90;;;4.90;98.00;;;;;;5012541;28;20453;-62
2022/12/01 07:46:20;;;;;;;10.00;4.13;;;5.00;98.00;;;;;;4995239;28;20505;-62
2022/12/01 07:48:50;;;;;;;4.80;3.40;;;4.80;98.00;;;;;;4995466;28;20467;-62
2022/12/01 07:51:18;;;;;;;8.77;3.87;;;4.70;98.00;;;;;;5012050;28;20460;-62
2022/12/01 07:53:46;;;;;;;5.40;3.20;;;4.80;98.00;;;;;;4995309;28;20477;-62
2022/12/01 07:56:23;;;;;;;11.23;3.37;;;4.80;98.00;;;;;;5012461;28;20832;-62
2022/12/01 07:58:51;;;;;;;12.53;3.83;;;5.00;98.00;;;;;;5012452;28;20465;-62
2022/12/01 08:01:20;;;;;;;7.60;3.47;;;4.90;98.00;;;;;;5012648;28;20490;-62
2022/12/01 08:03:48;;;;;;;3.90;2.40;;;4.80;98.00;;;;;;5012532;28;20457;-62
2022/12/01 08:06:17;;;;;;;7.30;3.70;;;4.80;98.00;;;;;;5012329;28;20496;-62
2022/12/01 08:08:44;;;;;;;14.17;3.93;;;4.90;98.00;;;;;;5012386;28;20467;-62
2022/12/01 08:11:14;;;;;;;6.93;3.67;;;4.90;98.00;;;;;;5012066;28;20452;-62
2022/12/01 08:13:42;;;;;;;9.70;4.13;;;4.90;98.00;;;;;;4994684;28;20463;-62
2022/12/01 08:16:13;;;;;;;7.40;3.20;;;5.10;98.00;;;;;;5012136;28;20511;-62
2022/12/01 08:18:41;;;;;;;6.93;3.70;;;4.90;98.00;;;;;;5012153;28;20465;-62
2022/12/01 08:21:10;;;;;;;5.10;3.33;;;5.10;98.00;;;;;;5011989;28;20500;-62
2022/12/01 08:23:37;;;;;;;5.37;3.23;;;5.10;98.00;;;;;;5011996;28;20999;-62
2022/12/01 08:26:08;;;;;;;15.47;3.20;;;5.20;98.00;;;;;;5012267;28;20468;-62
2022/12/01 08:28:36;;;;;;;6.07;3.27;;;5.30;98.00;;;;;;5011705;28;20934;-62
2022/12/01 08:31:08;;;;;;;7.63;3.40;;;5.40;98.00;;;;;;5010149;28;20456;-62
2022/12/01 08:33:37;;;;;;;4.13;2.83;;;5.50;98.00;;;;;;5009442;28;21033;-62
2022/12/01 08:36:05;;;;;;;6.87;3.87;;;5.40;98.00;;;;;;5009137;28;20456;-62
2022/12/01 08:38:32;;;;;;;7.17;3.80;;;5.50;98.00;;;;;;5009417;28;20462;-62
2022/12/01 08:41:01;;;;;;;4.00;2.70;;;5.40;98.00;;;;;;5008923;28;20497;-63
2022/12/01 08:43:28;;;;;;;11.97;4.80;;;5.50;98.00;;;;;;5009150;28;21014;-62
2022/12/01 08:45:58;;;;;;;3.23;1.90;;;5.50;98.00;;;;;;5009456;28;20852;-63
2022/12/01 08:48:28;;;;;;;3.30;1.40;;;5.60;98.00;;;;;;5009183;28;20545;-64
2022/12/01 08:51:03;;;;;;;7.10;2.77;;;6.60;98.00;;;;;;5007026;28;20473;-64
2022/12/01 08:53:31;;;;;;;9.27;2.90;;;7.70;98.00;;;;;;5009112;28;20455;-63
2022/12/01 08:56:00;;;;;;;10.90;4.07;;;8.50;98.00;;;;;;5009619;28;20953;-63
2022/12/01 08:58:28;;;;;;;8.30;4.33;;;8.50;98.00;;;;;;4991866;28;21203;-63
2022/12/01 09:01:01;;;;;;;5.50;3.27;;;8.10;98.00;;;;;;5009145;28;20505;-63
2022/12/01 09:03:30;;;;;;;7.13;3.70;;;7.70;98.00;;;;;;5011910;28;20495;-63
2022/12/01 09:06:03;;;;;;;4.77;3.07;;;7.40;98.00;;;;;;5012959;28;20456;-63
2022/12/01 09:08:34;;;;;;;7.97;3.67;;;7.10;98.00;;;;;;5013057;28;20460;-64
2022/12/01 09:11:04;;;;;;;9.17;3.77;;;7.00;98.00;;;;;;5013139;28;20498;-64
2022/12/01 09:13:32;;;;;;;10.90;3.43;;;6.80;98.00;;;;;;5012873;28;20456;-64
2022/12/01 09:16:01;;;;;;;7.73;3.70;;;6.70;98.00;;;;;;5013032;28;20458;-65
2022/12/01 09:18:31;;;;;;;8.63;4.90;;;6.60;98.00;;;;;;5011629;28;20468;-65
2022/12/01 09:20:58;;;;;;;6.67;2.80;;;6.30;98.00;;;;;;5012441;28;20997;-64
2022/12/01 09:23:27;;;;;;;6.70;3.53;;;6.00;98.00;;;;;;5012634;28;20459;-64
2022/12/01 09:25:54;;;;;;;7.50;3.90;;;5.80;98.00;;;;;;5011921;28;20520;-64
2022/12/01 09:28:21;;;;;;;7.33;3.40;;;5.70;98.00;;;;;;5012779;28;20958;-64
2022/12/01 09:30:48;;;;;;;8.93;3.83;;;5.70;98.00;;;;;;4995221;28;20538;-64
2022/12/01 09:33:16;;;;;;;9.43;3.20;;;5.50;98.00;;;;;;5012742;28;20518;-64
2022/12/01 09:35:43;;;;;;;5.07;2.97;;;5.50;98.00;;;;;;5012451;28;20474;-64
2022/12/01 09:38:11;;;;;;;7.97;3.07;;;5.60;98.00;;;;;;5012699;28;20483;-64
2022/12/01 09:40:42;;;;;;;8.03;3.60;;;5.80;98.00;;;;;;4979369;28;20485;-64
2022/12/01 09:43:17;;;;;;;7.33;3.20;;;5.90;98.00;;;;;;5012329;28;20490;-64
2022/12/01 09:45:51;;;;;;;6.93;3.63;;;6.00;98.00;;;;;;5012483;28;20464;-64
2022/12/01 09:48:26;;;;;;;10.60;3.33;;;5.90;98.00;;;;;;5006063;28;20526;-63
2022/12/01 09:50:54;;;;;;;7.37;3.83;;;6.00;98.00;;;;;;5009982;28;20464;-63
2022/12/01 09:53:25;;;;;;;6.57;3.10;;;5.90;98.00;;;;;;5010585;28;20960;-63
2022/12/01 09:55:53;;;;;;;5.23;3.30;;;5.80;98.00;;;;;;5010921;28;20490;-63
2022/12/01 09:58:25;;;;;;;8.60;3.67;;;5.70;98.00;;;;;;5010206;28;21175;-63
2022/12/01 10:00:54;;;;;;;5.17;3.13;;;5.70;98.00;;;;;;5011560;28;20923;-62
2022/12/01 10:03:31;;;;;;;7.60;4.07;;;5.60;98.00;;;;;;5010611;28;20468;-63
2022/12/01 10:06:02;;;;;;;6.97;2.80;;;5.50;98.00;;;;;;5011469;28;20457;-63
2022/12/01 10:08:33;;;;;;;7.47;3.07;;;5.40;98.00;;;;;;5011081;28;20459;-63
2022/12/01 10:11:08;;;;;;;9.50;3.07;;;5.40;98.00;;;;;;5011190;28;20522;-64
2022/12/01 10:13:35;;;;;;;4.80;2.80;;;5.30;98.00;;;;;;5009678;28;20969;-63
2022/12/01 10:16:12;;;;;;;10.17;3.90;;;5.30;98.00;;;;;;5010031;28;20458;-64
2022/12/01 10:18:53;;;;;;;5.03;3.40;;;5.50;98.00;;;;;;5011357;28;20565;-63
2022/12/01 10:21:33;;;;;;;8.90;3.20;;;5.80;98.00;;;;;;5011241;28;20491;-63
2022/12/01 10:24:15;;;;;;;9.37;3.70;;;5.70;98.00;;;;;;5011435;28;20518;-63
2022/12/01 10:26:51;;;;;;;6.30;3.63;;;5.70;98.00;;;;;;5011590;28;20460;-63
2022/12/01 10:29:27;;;;;;;12.23;4.07;;;5.80;98.00;;;;;;5011307;28;20473;-63
2022/12/01 10:31:57;;;;;;;6.87;3.40;;;5.90;98.00;;;;;;5011657;28;20551;-64
2022/12/01 10:34:27;;;;;;;7.53;3.43;;;5.90;98.00;;;;;;5011060;28;20548;-64
2022/12/01 10:36:54;;;;;;;7.83;3.63;;;6.10;98.00;;;;;;5011542;28;20464;-64
2022/12/01 10:39:27;;;;;;;7.97;3.63;;;6.10;98.00;;;;;;5011401;28;20964;-64
2022/12/01 10:42:04;;;;;;;4.20;2.73;;;6.20;98.00;;;;;;5010178;28;21003;-64
2022/12/01 10:44:31;;;;;;;7.63;3.70;;;6.20;98.00;;;;;;5009295;28;20460;-63
2022/12/01 10:47:02;;;;;;;5.97;3.73;;;6.30;98.00;;;;;;4992953;28;20474;-63
2022/12/01 10:49:38;;;;;;;7.30;3.10;;;6.30;98.00;;;;;;5006594;28;20471;-64
2022/12/01 10:52:05;;;;;;;5.37;3.53;;;6.30;98.00;;;;;;5008519;28;20485;-63
2022/12/01 10:54:35;;;;;;;10.40;3.03;;;6.30;98.00;;;;;;5008373;28;21057;-63
2022/12/01 10:57:06;;;;;;;5.70;3.37;;;6.30;98.00;;;;;;5009655;28;20544;-63
2022/12/01 10:59:36;;;;;;;12.17;4.83;;;6.30;98.00;;;;;;5010861;28;20466;-63
2022/12/01 11:02:05;;;;;;;9.30;4.37;;;6.40;98.00;;;;;;4993395;28;20559;-63
2022/12/01 11:04:43;;;;;;;6.13;3.57;;;6.40;98.00;;;;;;5010930;28;20462;-63
2022/12/01 11:07:20;;;;;;;5.83;2.80;;;6.40;98.00;;;;;;5010306;28;20548;-63
2022/12/01 11:09:58;;;;;;;5.60;3.50;;;6.40;98.00;;;;;;5010661;28;20466;-63
2022/12/01 11:12:26;;;;;;;5.70;2.73;;;6.30;98.00;;;;;;4992951;28;20457;-63
2022/12/01 11:14:56;;;;;;;8.90;3.70;;;6.40;98.00;;;;;;5009001;28;20464;-63
2022/12/01 11:17:30;;;;;;;10.50;3.80;;;6.50;98.00;;;;;;5008973;28;20469;-63
2022/12/01 11:20:16;;;;;;;6.27;3.30;;;6.40;98.00;;;;;;5010472;28;20452;-63
2022/12/01 11:22:43;;;;;;;14.30;4.80;;;6.40;98.00;;;;;;5002200;28;20473;-63
2022/12/01 11:25:19;;;;;;;6.20;3.93;;;6.40;98.00;;;;;;5009155;28;20836;-63
2022/12/01 11:27:53;;;;;;;5.47;2.93;;;6.40;98.00;;;;;;5010227;28;20557;-63
2022/12/01 11:30:25;;;;;;;6.10;3.20;;;6.40;98.00;;;;;;5010177;28;20461;-63
2022/12/01 11:32:55;;;;;;;6.67;4.20;;;6.40;98.00;;;;;;5010231;28;20464;-63
2022/12/01 11:35:24;;;;;;;7.73;3.10;;;6.40;98.00;;;;;;5009994;28;20537;-63
2022/12/01 11:37:56;;;;;;;11.20;3.47;;;6.40;98.00;;;;;;5010284;28;20711;-63
2022/12/01 11:40:26;;;;;;;8.97;4.10;;;6.50;98.00;;;;;;5009944;28;20467;-63
2022/12/01 11:43:02;;;;;;;10.40;4.97;;;6.50;98.00;;;;;;5009998;28;20486;-63
2022/12/01 11:45:32;;;;;;;7.53;3.40;;;6.50;98.00;;;;;;5009990;28;20848;-63
2022/12/01 11:48:05;;;;;;;5.97;3.17;;;6.60;98.00;;;;;;5010000;28;20466;-63
2022/12/01 11:50:35;;;;;;;6.50;3.17;;;6.60;98.00;;;;;;5007343;28;20470;-63
2022/12/01 11:53:03;;;;;;;5.30;3.07;;;6.60;98.00;;;;;;5009795;28;20469;-63
2022/12/01 11:55:32;;;;;;;8.17;3.20;;;6.60;98.00;;;;;;5009720;28;20462;-63
2022/12/01 11:58:04;;;;;;;5.27;3.70;;;6.70;98.00;;;;;;5009617;28;20460;-63
2022/12/01 12:00:42;;;;;;;8.90;4.00;;;6.70;98.00;;;;;;4992416;28;21173;-63
2022/12/01 12:03:19;;;;;;;10.30;3.50;;;6.70;98.00;;;;;;5009527;28;20470;-63
2022/12/01 12:06:06;;;;;;;6.00;3.53;;;6.80;98.00;;;;;;5009848;28;20493;-63
2022/12/01 12:08:45;;;;;;;4.13;2.73;;;6.80;98.00;;;;;;5009476;28;20505;-63
2022/12/01 12:11:17;;;;;;;6.03;3.40;;;6.80;98.00;;;;;;5009495;28;20510;-63
2022/12/01 12:14:11;;;;;;;7.57;3.70;;;6.90;98.00;;;;;;5009671;28;20462;-63
2022/12/01 12:16:58;;;;;;;5.13;2.80;;;6.90;98.00;;;;;;5009664;28;20467;-63
2022/12/01 12:19:44;;;;;;;7.27;2.90;;;6.80;98.00;;;;;;5009907;28;20973;-64
2022/12/01 12:22:24;;;;;;;7.17;3.57;;;6.80;98.00;;;;;;5003086;28;20494;-63
2022/12/01 12:25:07;;;;;;;6.40;4.13;;;6.90;98.00;;;;;;5009338;28;20466;-63
2022/12/01 12:27:43;;;;;;;4.77;2.70;;;6.80;98.00;;;;;;5009624;28;20467;-63
2022/12/01 12:30:23;;;;;;;7.10;3.00;;;6.90;98.00;;;;;;5009647;28;20454;-63
2022/12/01 12:33:23;;;;;;;8.07;3.60;;;6.90;98.00;;;;;;5009542;28;20455;-63
2022/12/01 12:36:04;;;;;;;4.77;3.43;;;6.90;98.00;;;;;;5003659;28;20880;-63
2022/12/01 12:38:52;;;;;;;10.03;4.23;;;7.00;98.00;;;;;;5013289;28;20455;-63
2022/12/01 12:41:30;;;;;;;7.20;3.00;;;6.90;98.00;;;;;;5013343;28;20487;-63
2022/12/01 12:44:16;;;;;;;8.47;3.80;;;7.00;98.00;;;;;;4996683;28;20465;-63
2022/12/01 12:46:55;;;;;;;4.77;3.43;;;7.00;98.00;;;;;;5013286;28;20459;-64
2022/12/01 12:49:31;;;;;;;6.33;3.53;;;6.90;98.00;;;;;;5010952;28;20479;-63
2022/12/01 12:52:04;;;;;;;5.73;2.97;;;7.10;98.00;;;;;;5013364;28;20524;-63
2022/12/01 12:54:36;;;;;;;5.20;2.70;;;7.10;98.00;;;;;;5012926;28;20468;-63
2022/12/01 12:57:06;;;;;;;6.00;3.20;;;7.10;98.00;;;;;;5013148;28;20477;-63
2022/12/01 12:59:40;;;;;;;6.57;3.13;;;7.10;98.00;;;;;;4995845;28;20471;-63
2022/12/01 13:02:13;;;;;;;10.87;3.80;;;7.00;98.00;;;;;;5012923;28;20582;-63
2022/12/01 13:04:48;;;;;;;6.30;3.40;;;7.00;98.00;;;;;;5012885;28;20471;-63
2022/12/01 13:07:30;;;;;;;5.97;3.40;;;7.00;98.00;;;;;;5012905;28;20458;-63
2022/12/01 13:10:03;;;;;;;6.70;2.70;;;7.00;98.00;;;;;;5012857;28;20793;-63
2022/12/01 13:12:35;;;;;;;3.93;3.23;;;7.10;98.00;;;;;;5012736;28;20464;-64
2022/12/01 13:15:14;;;;;;;7.30;3.37;;;7.10;98.00;;;;;;5015379;28;20517;-62
2022/12/01 13:17:45;;;;;;;5.90;3.60;;;7.10;98.00;;;;;;5026826;28;20453;-63
2022/12/01 13:20:16;;;;;;;6.57;3.40;;;7.20;98.00;;;;;;5034895;28;20806;-63